Time;durP1;ratioP1;P1;durP2;ratioP2;P2;SDS_P1;SDS_P2;PMS_P1;PMS_P2;Temp;Humidity;BMP_temperature;BMP_pressure;BME280_temperature;BME280_humidity;BME280_pressure;Samples;Min_cycle;Max_cycle;Signal;HPM_P1;HPM_P2
2021/04/26 00:00:01;;;;;;;5.33;0.43;;;;;;;;;;5066082;28;20273;-62
2021/04/26 00:02:27;;;;;;;0.00;0.00;;;;;;;;;;5061921;28;20183;-62
2021/04/26 00:04:54;;;;;;;0.53;0.53;;;;;;;;;;5060917;28;20214;-62
2021/04/26 00:07:21;;;;;;;0.00;0.00;;;;;;;;;;5064016;28;20187;-62
2021/04/26 00:09:47;;;;;;;0.00;0.00;;;;;;;;;;5059012;28;20178;-61
2021/04/26 00:12:14;;;;;;;0.00;0.00;;;;;;;;;;5059940;28;20770;-61
2021/04/26 00:14:40;;;;;;;0.00;0.00;;;;;;;;;;5056663;28;20664;-62
2021/04/26 00:17:07;;;;;;;0.00;0.00;;;;;;;;;;5060047;28;20359;-62
2021/04/26 00:19:34;;;;;;;0.00;0.00;;;;;;;;;;5068346;28;20179;-61
2021/04/26 00:22:00;;;;;;;0.00;0.00;;;;;;;;;;5061121;28;20242;-61
2021/04/26 00:24:27;;;;;;;0.00;0.00;;;;;;;;;;5057031;28;20211;-62
2021/04/26 00:26:54;;;;;;;0.67;0.53;;;;;;;;;;5059269;28;20175;-62
2021/04/26 00:29:21;;;;;;;0.00;0.00;;;;;;;;;;5059746;28;20175;-62
2021/04/26 00:31:47;;;;;;;0.00;0.00;;;;;;;;;;5057925;28;20251;-62
2021/04/26 00:34:14;;;;;;;0.20;0.20;;;;;;;;;;5064557;28;20369;-62
2021/04/26 00:36:40;;;;;;;0.40;0.23;;;;;;;;;;5059682;28;20762;-62
2021/04/26 00:39:07;;;;;;;0.00;0.00;;;;;;;;;;5063022;28;20186;-63
2021/04/26 00:41:36;;;;;;;0.00;0.00;;;;;;;;;;5059756;28;20191;-62
2021/04/26 00:44:05;;;;;;;0.87;0.67;;;;;;;;;;5057948;28;20696;-62
2021/04/26 00:46:31;;;;;;;0.00;0.00;;;;;;;;;;5059689;28;20213;-63
2021/04/26 00:48:58;;;;;;;0.07;0.07;;;;;;;;;;5058561;28;20255;-62
2021/04/26 00:51:25;;;;;;;0.00;0.00;;;;;;;;;;5058082;28;20178;-63
2021/04/26 00:53:52;;;;;;;0.00;0.00;;;;;;;;;;5059562;28;20191;-63
2021/04/26 00:56:18;;;;;;;2.63;2.53;;;;;;;;;;5059847;28;20183;-63
2021/04/26 00:58:45;;;;;;;0.00;0.00;;;;;;;;;;5059589;28;20190;-63
2021/04/26 01:01:12;;;;;;;0.00;0.00;;;;;;;;;;5060557;28;20195;-63
2021/04/26 01:03:38;;;;;;;0.10;0.10;;;;;;;;;;5060708;28;20211;-62
2021/04/26 01:06:05;;;;;;;0.00;0.00;;;;;;;;;;5061330;28;20174;-62
2021/04/26 01:08:31;;;;;;;0.00;0.00;;;;;;;;;;5059306;28;20175;-62
2021/04/26 01:10:59;;;;;;;0.00;0.00;;;;;;;;;;5059658;28;20530;-62
2021/04/26 01:13:34;;;;;;;0.87;0.40;;;;;;;;;;5058930;28;20202;-62
2021/04/26 01:16:19;;;;;;;0.00;0.00;;;;;;;;;;5059876;28;20538;-63
2021/04/26 01:19:04;;;;;;;1.20;0.40;;;;;;;;;;5057796;28;20194;-62
2021/04/26 01:21:46;;;;;;;72.27;16.77;;;;;;;;;;5055865;28;20271;-62
2021/04/26 01:24:13;;;;;;;1.80;0.73;;;;;;;;;;5051852;28;20202;-62
2021/04/26 01:26:48;;;;;;;0.10;0.10;;;;;;;;;;5056364;28;20198;-62
2021/04/26 01:29:36;;;;;;;0.07;0.07;;;;;;;;;;5048954;28;20182;-62
2021/04/26 01:32:19;;;;;;;0.00;0.00;;;;;;;;;;5047387;28;20189;-62
2021/04/26 01:34:47;;;;;;;0.00;0.00;;;;;;;;;;5050916;28;20190;-61
2021/04/26 01:37:15;;;;;;;0.43;0.43;;;;;;;;;;5055438;28;20182;-62
2021/04/26 01:39:42;;;;;;;0.10;0.10;;;;;;;;;;5053141;28;20202;-62
2021/04/26 01:42:11;;;;;;;0.00;0.00;;;;;;;;;;5056494;28;20762;-62
2021/04/26 01:44:38;;;;;;;0.00;0.00;;;;;;;;;;5056351;28;20866;-62
2021/04/26 01:47:08;;;;;;;0.00;0.00;;;;;;;;;;5051512;28;20248;-62
2021/04/26 01:49:35;;;;;;;0.50;0.33;;;;;;;;;;5048765;28;20197;-62
2021/04/26 01:52:03;;;;;;;0.00;0.00;;;;;;;;;;5049367;28;20235;-62
2021/04/26 01:54:30;;;;;;;0.00;0.00;;;;;;;;;;5048042;28;20193;-62
2021/04/26 01:56:57;;;;;;;0.10;0.10;;;;;;;;;;5054569;28;20229;-61
2021/04/26 01:59:24;;;;;;;0.50;0.47;;;;;;;;;;5056017;28;20183;-61
2021/04/26 02:01:56;;;;;;;0.00;0.00;;;;;;;;;;5045574;28;20186;-61
2021/04/26 02:04:26;;;;;;;0.20;0.20;;;;;;;;;;5053206;28;20198;-61
2021/04/26 02:06:56;;;;;;;0.20;0.20;;;;;;;;;;5056623;28;20175;-61
2021/04/26 02:09:23;;;;;;;0.00;0.00;;;;;;;;;;5056058;28;20959;-61
2021/04/26 02:11:51;;;;;;;0.40;0.40;;;;;;;;;;5055839;28;20832;-62
2021/04/26 02:14:17;;;;;;;0.20;0.20;;;;;;;;;;5054155;28;20380;-61
2021/04/26 02:16:44;;;;;;;0.03;0.03;;;;;;;;;;5056084;28;20269;-61
2021/04/26 02:19:11;;;;;;;0.10;0.10;;;;;;;;;;5051743;28;20241;-61
2021/04/26 02:21:40;;;;;;;0.67;0.67;;;;;;;;;;5056037;28;20217;-61
2021/04/26 02:24:09;;;;;;;0.67;0.60;;;;;;;;;;5055789;28;20214;-61
2021/04/26 02:26:36;;;;;;;0.20;0.20;;;;;;;;;;5059712;28;20821;-61
2021/04/26 02:29:04;;;;;;;0.00;0.00;;;;;;;;;;5058480;28;20951;-61
2021/04/26 02:31:32;;;;;;;0.10;0.10;;;;;;;;;;5058691;28;20209;-61
2021/04/26 02:34:02;;;;;;;0.10;0.10;;;;;;;;;;5059440;28;20196;-61
2021/04/26 02:36:31;;;;;;;0.00;0.00;;;;;;;;;;5059279;28;20181;-62
2021/04/26 02:39:01;;;;;;;0.00;0.00;;;;;;;;;;5059539;28;20190;-61
2021/04/26 02:41:30;;;;;;;0.00;0.00;;;;;;;;;;5058008;28;20777;-61
2021/04/26 02:43:59;;;;;;;0.20;0.20;;;;;;;;;;5056996;28;20246;-61
2021/04/26 02:46:27;;;;;;;0.00;0.00;;;;;;;;;;5063060;28;20213;-62
2021/04/26 02:48:55;;;;;;;0.20;0.20;;;;;;;;;;5058773;28;20215;-61
2021/04/26 02:51:22;;;;;;;0.00;0.00;;;;;;;;;;5051446;28;20183;-60
2021/04/26 02:53:52;;;;;;;1.00;0.60;;;;;;;;;;5048794;28;20237;-62
2021/04/26 02:56:19;;;;;;;0.00;0.00;;;;;;;;;;5055782;28;20206;-61
2021/04/26 02:58:47;;;;;;;0.10;0.10;;;;;;;;;;5063247;28;20249;-61
2021/04/26 03:01:17;;;;;;;0.03;0.03;;;;;;;;;;5061988;28;20266;-60
2021/04/26 03:03:44;;;;;;;0.03;0.03;;;;;;;;;;5062709;28;20249;-61
2021/04/26 03:06:11;;;;;;;0.70;0.70;;;;;;;;;;5061849;28;20232;-61
2021/04/26 03:08:38;;;;;;;0.00;0.00;;;;;;;;;;5061721;28;20212;-61
2021/04/26 03:11:11;;;;;;;0.00;0.00;;;;;;;;;;5063338;28;20183;-61
2021/04/26 03:13:38;;;;;;;1.50;0.93;;;;;;;;;;5060021;28;20228;-61
2021/04/26 03:16:05;;;;;;;0.00;0.00;;;;;;;;;;5059846;28;20298;-61
2021/04/26 03:18:33;;;;;;;0.00;0.00;;;;;;;;;;5059528;28;20182;-61
2021/04/26 03:21:00;;;;;;;0.27;0.27;;;;;;;;;;5059568;28;20183;-62
2021/04/26 03:23:27;;;;;;;0.00;0.00;;;;;;;;;;5055811;28;20682;-62
2021/04/26 03:26:00;;;;;;;0.20;0.10;;;;;;;;;;5060408;28;20265;-61
2021/04/26 03:28:28;;;;;;;0.30;0.30;;;;;;;;;;5060763;28;20936;-62
2021/04/26 03:30:57;;;;;;;0.00;0.00;;;;;;;;;;5061097;28;21110;-61
2021/04/26 03:33:24;;;;;;;0.00;0.00;;;;;;;;;;5058948;28;20179;-61
2021/04/26 03:35:54;;;;;;;1.00;0.70;;;;;;;;;;5058114;28;20187;-61
2021/04/26 03:38:21;;;;;;;0.00;0.00;;;;;;;;;;5060660;28;20816;-62
2021/04/26 03:40:48;;;;;;;0.10;0.10;;;;;;;;;;5059356;28;20193;-62
2021/04/26 03:43:15;;;;;;;0.10;0.10;;;;;;;;;;5058576;28;20239;-63
2021/04/26 03:45:42;;;;;;;0.83;0.20;;;;;;;;;;5054842;28;20183;-63
2021/04/26 03:48:09;;;;;;;3.50;1.70;;;;;;;;;;5051239;28;20175;-62
2021/04/26 03:50:36;;;;;;;0.03;0.03;;;;;;;;;;5053571;28;20266;-61
2021/04/26 03:53:03;;;;;;;0.10;0.10;;;;;;;;;;5054710;28;20190;-61
2021/04/26 03:55:30;;;;;;;0.67;0.47;;;;;;;;;;5061130;28;20179;-62
2021/04/26 03:57:57;;;;;;;0.10;0.10;;;;;;;;;;5061021;28;20313;-62
2021/04/26 04:00:25;;;;;;;0.60;0.60;;;;;;;;;;5057107;28;20182;-62
2021/04/26 04:02:51;;;;;;;0.40;0.30;;;;;;;;;;5046064;28;20241;-61
2021/04/26 04:05:19;;;;;;;0.00;0.00;;;;;;;;;;5055594;28;20629;-62
2021/04/26 04:07:46;;;;;;;0.00;0.00;;;;;;;;;;5048685;28;20193;-61
2021/04/26 04:10:14;;;;;;;0.63;0.17;;;;;;;;;;5054376;28;20222;-61
2021/04/26 04:12:40;;;;;;;0.03;0.03;;;;;;;;;;5055949;28;20188;-61
2021/04/26 04:15:08;;;;;;;0.03;0.03;;;;;;;;;;5049880;28;20688;-61
2021/04/26 04:17:35;;;;;;;0.53;0.53;;;;;;;;;;5051072;28;20193;-61
2021/04/26 04:20:01;;;;;;;0.83;0.20;;;;;;;;;;5047601;28;20179;-63
2021/04/26 04:22:28;;;;;;;0.00;0.00;;;;;;;;;;5054639;28;20187;-62
2021/04/26 04:24:55;;;;;;;0.00;0.00;;;;;;;;;;5050759;28;20199;-62
2021/04/26 04:27:22;;;;;;;0.10;0.10;;;;;;;;;;5057196;28;20193;-62
2021/04/26 04:29:48;;;;;;;0.10;0.10;;;;;;;;;;5049832;28;20182;-62
2021/04/26 04:32:15;;;;;;;0.03;0.03;;;;;;;;;;5062032;28;20906;-61
2021/04/26 04:34:41;;;;;;;0.20;0.20;;;;;;;;;;5053781;28;20468;-63
2021/04/26 04:37:08;;;;;;;7.50;2.53;;;;;;;;;;5060218;28;20830;-62
2021/04/26 04:39:35;;;;;;;0.00;0.00;;;;;;;;;;5058226;28;20206;-62
2021/04/26 04:42:01;;;;;;;0.00;0.00;;;;;;;;;;5058565;28;20183;-62
2021/04/26 04:44:28;;;;;;;0.00;0.00;;;;;;;;;;5058507;28;20242;-62
2021/04/26 04:46:55;;;;;;;0.10;0.10;;;;;;;;;;5057976;28;20455;-61
2021/04/26 04:49:21;;;;;;;0.20;0.20;;;;;;;;;;5061516;28;20520;-61
2021/04/26 04:51:48;;;;;;;2.30;0.20;;;;;;;;;;5060857;28;20878;-62
2021/04/26 04:54:14;;;;;;;0.00;0.00;;;;;;;;;;5065037;28;20201;-61
2021/04/26 04:56:41;;;;;;;0.00;0.00;;;;;;;;;;5058930;28;20687;-61
2021/04/26 04:59:08;;;;;;;0.87;0.87;;;;;;;;;;5058876;28;20382;-61
2021/04/26 05:01:34;;;;;;;0.40;0.40;;;;;;;;;;5059196;28;20183;-60
2021/04/26 05:04:02;;;;;;;0.10;0.10;;;;;;;;;;5052015;28;20660;-61
2021/04/26 05:06:28;;;;;;;0.00;0.00;;;;;;;;;;5059289;28;20178;-61
2021/04/26 05:08:55;;;;;;;0.00;0.00;;;;;;;;;;5048035;28;20190;-61
2021/04/26 05:11:22;;;;;;;0.00;0.00;;;;;;;;;;5048527;28;20187;-62
2021/04/26 05:13:49;;;;;;;0.47;0.20;;;;;;;;;;5044470;28;20704;-61
2021/04/26 05:16:15;;;;;;;1.70;1.03;;;;;;;;;;5046969;28;20195;-62
2021/04/26 05:18:42;;;;;;;0.13;0.13;;;;;;;;;;5050301;28;20206;-62
2021/04/26 05:21:08;;;;;;;0.20;0.20;;;;;;;;;;5049888;28;20186;-62
2021/04/26 05:23:35;;;;;;;3.00;2.80;;;;;;;;;;5046686;28;20211;-62
2021/04/26 05:26:02;;;;;;;0.00;0.00;;;;;;;;;;5047571;28;20210;-62
2021/04/26 05:28:28;;;;;;;11.90;0.97;;;;;;;;;;5048925;28;20218;-62
2021/04/26 05:30:55;;;;;;;0.37;0.37;;;;;;;;;;5046480;28;20221;-65
2021/04/26 05:33:21;;;;;;;0.27;0.27;;;;;;;;;;5046957;28;20640;-65
2021/04/26 05:35:48;;;;;;;0.20;0.20;;;;;;;;;;5054909;28;20191;-66
2021/04/26 05:38:18;;;;;;;0.10;0.10;;;;;;;;;;5054606;28;20191;-64
2021/04/26 05:40:47;;;;;;;0.57;0.33;;;;;;;;;;5057493;28;20285;-65
2021/04/26 05:43:14;;;;;;;0.20;0.20;;;;;;;;;;5055718;28;20675;-64
2021/04/26 05:45:41;;;;;;;0.20;0.20;;;;;;;;;;5052308;28;20202;-64
2021/04/26 05:48:08;;;;;;;2.17;1.97;;;;;;;;;;5048461;28;21039;-64
2021/04/26 05:50:35;;;;;;;0.07;0.07;;;;;;;;;;5053258;28;20189;-64
2021/04/26 05:53:02;;;;;;;0.10;0.10;;;;;;;;;;5049448;28;20225;-64
2021/04/26 05:55:29;;;;;;;0.17;0.17;;;;;;;;;;5048399;28;20182;-64
2021/04/26 05:57:56;;;;;;;0.30;0.30;;;;;;;;;;5052522;28;20185;-64
2021/04/26 06:00:23;;;;;;;0.00;0.00;;;;;;;;;;5049389;28;20605;-64
2021/04/26 06:02:49;;;;;;;0.30;0.30;;;;;;;;;;5048292;28;20659;-64
2021/04/26 06:05:16;;;;;;;2.27;0.87;;;;;;;;;;5050523;28;20494;-64
2021/04/26 06:07:43;;;;;;;0.00;0.00;;;;;;;;;;5055739;28;20530;-64
2021/04/26 06:10:10;;;;;;;0.10;0.10;;;;;;;;;;5058419;28;20623;-64
2021/04/26 06:12:37;;;;;;;1.47;1.23;;;;;;;;;;5061779;28;20201;-65
2021/04/26 06:15:04;;;;;;;1.27;1.27;;;;;;;;;;5059419;28;20186;-64
2021/04/26 06:17:30;;;;;;;0.00;0.00;;;;;;;;;;5054940;28;20183;-64
2021/04/26 06:19:58;;;;;;;1.03;0.43;;;;;;;;;;5062920;28;20266;-65
2021/04/26 06:22:26;;;;;;;0.00;0.00;;;;;;;;;;5053564;28;20175;-64
2021/04/26 06:24:53;;;;;;;0.00;0.00;;;;;;;;;;5060245;28;20213;-65
2021/04/26 06:27:20;;;;;;;14.10;1.10;;;;;;;;;;5057983;28;20265;-65
2021/04/26 12:54:11;;;;;;;0.67;0.50;;;;;;;;;;5038462;28;20634;-62
2021/04/26 12:56:38;;;;;;;0.50;0.50;;;;;;;;;;5036396;28;20241;-63
2021/04/26 12:59:06;;;;;;;4.33;0.17;;;;;;;;;;5040512;28;20868;-62
2021/04/26 13:01:33;;;;;;;6.33;0.80;;;;;;;;;;5036268;28;20756;-62
2021/04/26 13:04:01;;;;;;;4.57;0.67;;;;;;;;;;5037029;28;20184;-65
2021/04/26 13:06:32;;;;;;;0.33;0.33;;;;;;;;;;5029229;28;20188;-65
2021/04/26 13:09:08;;;;;;;0.23;0.23;;;;;;;;;;5035014;28;20188;-65
2021/04/26 13:11:35;;;;;;;0.00;0.00;;;;;;;;;;5036490;28;20216;-65
2021/04/26 13:14:07;;;;;;;0.10;0.10;;;;;;;;;;5030064;28;20214;-65
2021/04/26 13:16:35;;;;;;;0.13;0.13;;;;;;;;;;5033118;28;20172;-69
2021/04/26 13:19:03;;;;;;;4.90;0.73;;;;;;;;;;5033422;28;20210;-66
2021/04/26 13:21:47;;;;;;;1.03;0.67;;;;;;;;;;5034898;28;20283;-66
2021/04/26 13:24:15;;;;;;;0.10;0.10;;;;;;;;;;5030710;28;21569;-65
2021/04/26 13:26:42;;;;;;;0.30;0.23;;;;;;;;;;5034757;28;20183;-65
2021/04/26 13:29:19;;;;;;;0.07;0.07;;;;;;;;;;5031692;28;20177;-60
2021/04/26 13:31:47;;;;;;;5.13;1.40;;;;;;;;;;5033289;28;20284;-64
2021/04/26 13:34:15;;;;;;;0.00;0.00;;;;;;;;;;5030443;28;20180;-64
2021/04/26 13:36:42;;;;;;;0.10;0.10;;;;;;;;;;5031261;28;20492;-64
2021/04/26 13:39:12;;;;;;;0.03;0.03;;;;;;;;;;5030154;28;20760;-63
2021/04/26 13:41:39;;;;;;;0.57;0.40;;;;;;;;;;5028325;28;20176;-62
2021/04/26 13:44:06;;;;;;;5.70;1.00;;;;;;;;;;5033497;28;20352;-62
2021/04/26 13:46:35;;;;;;;0.10;0.10;;;;;;;;;;5033311;28;20195;-62
2021/04/26 13:49:02;;;;;;;0.60;0.40;;;;;;;;;;5033886;28;20280;-62
2021/04/26 13:51:29;;;;;;;0.00;0.00;;;;;;;;;;5035480;28;20183;-61
2021/04/26 13:53:55;;;;;;;1.03;0.63;;;;;;;;;;5032335;28;20223;-62
2021/04/26 13:56:22;;;;;;;0.20;0.20;;;;;;;;;;5029848;28;20186;-62
2021/04/26 13:58:49;;;;;;;0.30;0.20;;;;;;;;;;5032536;28;20723;-61
2021/04/26 14:01:16;;;;;;;0.23;0.10;;;;;;;;;;5031897;28;20937;-61
2021/04/26 14:03:45;;;;;;;2.93;0.70;;;;;;;;;;5030595;28;20359;-61
2021/04/26 14:06:11;;;;;;;2.00;0.57;;;;;;;;;;5015967;28;20194;-62
2021/04/26 14:08:38;;;;;;;0.43;0.43;;;;;;;;;;5021459;28;20531;-62
2021/04/26 14:11:05;;;;;;;0.43;0.17;;;;;;;;;;5018826;28;20272;-62
2021/04/26 14:13:33;;;;;;;0.00;0.00;;;;;;;;;;5018333;28;20205;-62
2021/04/26 14:16:00;;;;;;;0.10;0.10;;;;;;;;;;5021085;28;20199;-62
2021/04/26 14:18:27;;;;;;;0.07;0.00;;;;;;;;;;5020517;28;20180;-61
2021/04/26 14:20:54;;;;;;;0.53;0.10;;;;;;;;;;5021591;28;20191;-61
2021/04/26 14:23:21;;;;;;;0.40;0.07;;;;;;;;;;5020132;28;20187;-61
2021/04/26 14:25:47;;;;;;;0.20;0.20;;;;;;;;;;5020331;28;20180;-61
2021/04/26 14:28:15;;;;;;;6.70;1.00;;;;;;;;;;5016059;28;20680;-61
2021/04/26 14:30:42;;;;;;;0.63;0.30;;;;;;;;;;5018408;28;20498;-61
2021/04/26 14:33:09;;;;;;;2.40;0.87;;;;;;;;;;5019774;28;20688;-62
2021/04/26 14:35:38;;;;;;;2.03;0.37;;;;;;;;;;5019880;28;20180;-61
2021/04/26 14:38:05;;;;;;;0.13;0.13;;;;;;;;;;5018713;28;20184;-61
2021/04/26 14:40:32;;;;;;;0.00;0.00;;;;;;;;;;5016214;28;20846;-62
2021/04/26 14:42:59;;;;;;;1.13;1.03;;;;;;;;;;5018358;28;20195;-61
2021/04/26 14:45:26;;;;;;;0.00;0.00;;;;;;;;;;5015977;28;20184;-62
2021/04/26 14:47:54;;;;;;;0.00;0.00;;;;;;;;;;5011325;28;20263;-62
2021/04/26 14:50:21;;;;;;;1.13;0.67;;;;;;;;;;5005662;28;20273;-60
2021/04/26 14:52:48;;;;;;;0.30;0.30;;;;;;;;;;5016832;28;20242;-61
2021/04/26 14:55:16;;;;;;;4.30;0.87;;;;;;;;;;5020536;28;20883;-61
2021/04/26 14:57:43;;;;;;;1.90;0.67;;;;;;;;;;5016259;28;20191;-62
2021/04/26 15:00:10;;;;;;;0.73;0.40;;;;;;;;;;5018667;28;20590;-62
2021/04/26 15:02:36;;;;;;;0.10;0.10;;;;;;;;;;5019971;28;20188;-62
2021/04/26 15:05:04;;;;;;;2.00;0.20;;;;;;;;;;5016225;28;20586;-62
2021/04/26 15:07:32;;;;;;;0.00;0.00;;;;;;;;;;5016868;28;20754;-62
2021/04/26 15:09:59;;;;;;;1.13;0.10;;;;;;;;;;5017609;28;20736;-62
2021/04/26 15:12:26;;;;;;;0.77;0.13;;;;;;;;;;5019882;28;20288;-62
2021/04/26 15:14:53;;;;;;;2.23;0.30;;;;;;;;;;5022328;28;20193;-62
2021/04/26 15:17:19;;;;;;;0.00;0.00;;;;;;;;;;5018462;28;20183;-63
2021/04/26 15:19:48;;;;;;;0.53;0.50;;;;;;;;;;5015098;28;20370;-61
2021/04/26 15:22:17;;;;;;;5.43;2.70;;;;;;;;;;5013694;28;20937;-62
2021/04/26 15:24:44;;;;;;;0.33;0.33;;;;;;;;;;5017709;28;20274;-61
2021/04/26 15:27:11;;;;;;;0.23;0.23;;;;;;;;;;5017590;28;20202;-62
2021/04/26 15:29:39;;;;;;;0.27;0.27;;;;;;;;;;5008138;28;20196;-62
2021/04/26 15:32:07;;;;;;;0.10;0.10;;;;;;;;;;5015331;28;20192;-62
2021/04/26 15:34:41;;;;;;;1.47;0.70;;;;;;;;;;5017214;28;20279;-61
2021/04/26 15:37:08;;;;;;;1.80;0.17;;;;;;;;;;5010982;28;20192;-62
2021/04/26 15:39:36;;;;;;;1.83;0.20;;;;;;;;;;5017659;28;20274;-62
2021/04/26 15:42:04;;;;;;;0.13;0.13;;;;;;;;;;5015351;28;20195;-62
2021/04/26 15:44:31;;;;;;;1.47;0.53;;;;;;;;;;5014481;28;20186;-61
2021/04/26 15:46:57;;;;;;;2.70;0.53;;;;;;;;;;5014681;28;20188;-62
2021/04/26 15:49:24;;;;;;;0.20;0.17;;;;;;;;;;5015089;28;20220;-61
2021/04/26 15:51:51;;;;;;;1.27;0.10;;;;;;;;;;5018695;28;20285;-62
2021/04/26 15:54:17;;;;;;;0.00;0.00;;;;;;;;;;5016013;28;20223;-62
2021/04/26 15:56:44;;;;;;;0.00;0.00;;;;;;;;;;5016848;28;20274;-62
2021/04/26 15:59:11;;;;;;;0.00;0.00;;;;;;;;;;5015387;28;20199;-62
2021/04/26 16:01:38;;;;;;;1.07;0.33;;;;;;;;;;5017586;28;20203;-61
2021/04/26 16:04:05;;;;;;;0.00;0.00;;;;;;;;;;5019386;28;20308;-61
2021/04/26 16:06:32;;;;;;;0.47;0.40;;;;;;;;;;5013158;28;20229;-61
2021/04/26 16:08:58;;;;;;;1.07;0.33;;;;;;;;;;5018762;28;20405;-61
2021/04/26 16:11:25;;;;;;;2.77;0.37;;;;;;;;;;5019389;28;20229;-62
2021/04/26 16:13:52;;;;;;;0.93;0.73;;;;;;;;;;5021966;28;20207;-62
2021/04/26 16:16:19;;;;;;;0.30;0.20;;;;;;;;;;5018818;28;20194;-61
2021/04/26 16:18:46;;;;;;;0.40;0.33;;;;;;;;;;5010597;28;20181;-61
2021/04/26 16:21:13;;;;;;;1.20;1.10;;;;;;;;;;5021426;28;20183;-61
2021/04/26 16:23:40;;;;;;;3.03;0.17;;;;;;;;;;5017751;28;20174;-62
2021/04/26 16:26:07;;;;;;;0.00;0.00;;;;;;;;;;5016898;28;20180;-62
2021/04/26 16:28:34;;;;;;;0.00;0.00;;;;;;;;;;5012158;28;20381;-62
2021/04/26 16:31:00;;;;;;;0.00;0.00;;;;;;;;;;5015958;28;20420;-62
2021/04/26 16:33:27;;;;;;;5.40;0.53;;;;;;;;;;5020946;28;20195;-62
2021/04/26 16:35:56;;;;;;;0.03;0.03;;;;;;;;;;5017466;28;20218;-62
2021/04/26 16:38:23;;;;;;;0.23;0.23;;;;;;;;;;5018861;28;20181;-61
2021/04/26 16:40:50;;;;;;;0.00;0.00;;;;;;;;;;5018728;28;20214;-61
2021/04/26 16:43:16;;;;;;;0.10;0.10;;;;;;;;;;5021647;28;20194;-61
2021/04/26 16:45:47;;;;;;;1.90;0.53;;;;;;;;;;5018839;28;20191;-61
2021/04/26 16:48:14;;;;;;;2.40;0.30;;;;;;;;;;5012634;28;20424;-63
2021/04/26 16:50:41;;;;;;;1.30;0.00;;;;;;;;;;5019079;28;20183;-61
2021/04/26 16:53:08;;;;;;;3.60;0.47;;;;;;;;;;5016180;28;20225;-62
2021/04/26 16:55:34;;;;;;;1.80;0.30;;;;;;;;;;5019621;28;20194;-62
2021/04/26 16:58:02;;;;;;;4.03;0.63;;;;;;;;;;5018462;28;20283;-61
2021/04/26 17:00:29;;;;;;;0.00;0.00;;;;;;;;;;5017223;28;20293;-61
2021/04/26 17:02:55;;;;;;;0.47;0.27;;;;;;;;;;5014524;28;20229;-62
2021/04/26 17:05:22;;;;;;;0.00;0.00;;;;;;;;;;5015438;28;20298;-61
2021/04/26 17:07:49;;;;;;;0.00;0.00;;;;;;;;;;5018128;28;20204;-62
2021/04/26 17:10:16;;;;;;;0.00;0.00;;;;;;;;;;5017477;28;20191;-62
2021/04/26 17:12:45;;;;;;;3.03;0.47;;;;;;;;;;5010322;28;20207;-61
2021/04/26 17:15:12;;;;;;;0.00;0.00;;;;;;;;;;5000263;28;20202;-62
2021/04/26 17:17:38;;;;;;;1.17;0.40;;;;;;;;;;5010857;28;20239;-62
2021/04/26 17:20:06;;;;;;;1.60;0.43;;;;;;;;;;5010614;28;20669;-62
2021/04/26 17:22:34;;;;;;;0.00;0.00;;;;;;;;;;5017506;28;20684;-62
2021/04/26 17:25:01;;;;;;;0.63;0.30;;;;;;;;;;5013647;28;20244;-62
2021/04/26 17:27:27;;;;;;;0.20;0.13;;;;;;;;;;5017440;28;20184;-61
2021/04/26 17:29:54;;;;;;;0.47;0.13;;;;;;;;;;5012651;28;20189;-62
2021/04/26 17:32:21;;;;;;;0.10;0.07;;;;;;;;;;5020430;28;20196;-62
2021/04/26 17:34:48;;;;;;;1.10;0.27;;;;;;;;;;5019490;28;20198;-61
2021/04/26 17:37:15;;;;;;;2.00;1.13;;;;;;;;;;5018107;28;20672;-62
2021/04/26 17:39:42;;;;;;;0.00;0.00;;;;;;;;;;5020212;28;20732;-62
2021/04/26 17:42:09;;;;;;;0.20;0.20;;;;;;;;;;5011896;28;20384;-62
2021/04/26 17:44:36;;;;;;;0.53;0.33;;;;;;;;;;5015842;28;20267;-62
2021/04/26 17:47:02;;;;;;;0.73;0.20;;;;;;;;;;5018534;28;20196;-62
2021/04/26 17:49:29;;;;;;;0.00;0.00;;;;;;;;;;5022857;28;20190;-62
2021/04/26 17:51:55;;;;;;;0.00;0.00;;;;;;;;;;5007759;28;20727;-63
2021/04/26 17:54:22;;;;;;;2.80;0.40;;;;;;;;;;5018358;28;20217;-60
2021/04/26 17:56:49;;;;;;;0.07;0.07;;;;;;;;;;5013505;28;20300;-62
2021/04/26 17:59:15;;;;;;;0.00;0.00;;;;;;;;;;5015261;28;20194;-60
2021/04/26 18:01:42;;;;;;;0.63;0.63;;;;;;;;;;5020101;28;20187;-61
2021/04/26 18:04:11;;;;;;;0.13;0.13;;;;;;;;;;5019514;28;20637;-60
2021/04/26 18:06:38;;;;;;;0.73;0.63;;;;;;;;;;5016672;28;20192;-61
2021/04/26 18:09:05;;;;;;;1.10;0.83;;;;;;;;;;5019852;28;20310;-61
2021/04/26 18:11:32;;;;;;;0.00;0.00;;;;;;;;;;5019089;28;20201;-61
2021/04/26 18:13:58;;;;;;;0.00;0.00;;;;;;;;;;5023091;28;20940;-61
2021/04/26 18:16:25;;;;;;;0.37;0.03;;;;;;;;;;5026229;28;20699;-61
2021/04/26 18:18:55;;;;;;;0.10;0.10;;;;;;;;;;5014233;28;20223;-61
2021/04/26 18:21:22;;;;;;;2.30;0.03;;;;;;;;;;5015232;28;20276;-62
2021/04/26 18:23:49;;;;;;;2.43;0.60;;;;;;;;;;5020362;28;20195;-61
2021/04/26 18:26:16;;;;;;;0.00;0.00;;;;;;;;;;5022641;28;20283;-61
2021/04/26 18:28:42;;;;;;;1.17;0.63;;;;;;;;;;5023693;28;20979;-61
2021/04/26 18:31:09;;;;;;;0.00;0.00;;;;;;;;;;5025970;28;21009;-60
2021/04/26 18:33:36;;;;;;;0.00;0.00;;;;;;;;;;5019918;28;20207;-60
2021/04/26 18:36:05;;;;;;;1.40;0.30;;;;;;;;;;5024172;28;20865;-61
2021/04/26 18:38:32;;;;;;;0.20;0.10;;;;;;;;;;5016926;28;20184;-61
2021/04/26 18:40:59;;;;;;;0.60;0.60;;;;;;;;;;5016683;28;20203;-61
2021/04/26 18:43:26;;;;;;;0.20;0.10;;;;;;;;;;5019153;28;20197;-61
2021/04/26 18:45:52;;;;;;;0.10;0.10;;;;;;;;;;5019688;28;20534;-62
2021/04/26 18:48:19;;;;;;;0.00;0.00;;;;;;;;;;5017124;28;20192;-62
2021/04/26 18:50:45;;;;;;;0.00;0.00;;;;;;;;;;5018110;28;20826;-61
2021/04/26 18:53:16;;;;;;;0.87;0.63;;;;;;;;;;5012998;28;21521;-61
2021/04/26 18:55:43;;;;;;;0.00;0.00;;;;;;;;;;5020942;28;20639;-62
2021/04/26 18:58:09;;;;;;;0.10;0.10;;;;;;;;;;5012552;28;21077;-61
2021/04/26 19:00:36;;;;;;;1.90;0.47;;;;;;;;;;5025915;28;20184;-61
2021/04/26 19:03:02;;;;;;;0.77;0.40;;;;;;;;;;5019039;28;20215;-61
2021/04/26 19:05:29;;;;;;;0.00;0.00;;;;;;;;;;5022994;28;20973;-61
2021/04/26 19:07:56;;;;;;;0.67;0.10;;;;;;;;;;5019071;28;20290;-62
2021/04/26 19:10:22;;;;;;;3.10;0.37;;;;;;;;;;5016864;28;20246;-62
2021/04/26 19:12:49;;;;;;;6.20;0.63;;;;;;;;;;5018598;28;20208;-62
2021/04/26 19:15:16;;;;;;;0.87;0.87;;;;;;;;;;5013148;28;20196;-61
2021/04/26 19:17:43;;;;;;;0.10;0.10;;;;;;;;;;5008760;28;20184;-61
2021/04/26 19:20:11;;;;;;;0.10;0.10;;;;;;;;;;5015038;28;20188;-61
2021/04/26 19:22:37;;;;;;;0.43;0.03;;;;;;;;;;5010539;28;20276;-62
2021/04/26 19:25:09;;;;;;;0.10;0.10;;;;;;;;;;5007259;28;20961;-62
2021/04/26 19:27:36;;;;;;;0.10;0.10;;;;;;;;;;5008830;28;20193;-62
2021/04/26 19:30:05;;;;;;;0.00;0.00;;;;;;;;;;5019305;28;20199;-62
2021/04/26 19:32:31;;;;;;;0.10;0.10;;;;;;;;;;5013189;28;20210;-61
2021/04/26 19:34:58;;;;;;;0.00;0.00;;;;;;;;;;5018737;28;20512;-62
2021/04/26 19:37:26;;;;;;;1.13;0.50;;;;;;;;;;5019428;28;20912;-63
2021/04/26 19:39:53;;;;;;;0.00;0.00;;;;;;;;;;5030395;28;20495;-61
2021/04/26 19:42:20;;;;;;;1.30;0.77;;;;;;;;;;5018683;28;20184;-62
2021/04/26 19:44:46;;;;;;;0.37;0.20;;;;;;;;;;5017015;28;20256;-61
2021/04/26 19:47:13;;;;;;;1.03;0.50;;;;;;;;;;5010246;28;21950;-61
2021/04/26 19:49:39;;;;;;;0.03;0.03;;;;;;;;;;5009680;28;20238;-61
2021/04/26 19:52:06;;;;;;;0.00;0.00;;;;;;;;;;5021370;28;20329;-61
2021/04/26 19:54:33;;;;;;;4.80;0.53;;;;;;;;;;5022519;28;20194;-61
2021/04/26 19:57:01;;;;;;;2.03;0.57;;;;;;;;;;5019121;28;20180;-62
2021/04/26 19:59:28;;;;;;;0.00;0.00;;;;;;;;;;5017500;28;20195;-62
2021/04/26 20:01:54;;;;;;;0.10;0.00;;;;;;;;;;5012021;28;20215;-62
2021/04/26 20:04:21;;;;;;;0.00;0.00;;;;;;;;;;5015414;28;20176;-61
2021/04/26 20:06:49;;;;;;;1.07;0.57;;;;;;;;;;5011210;28;20180;-61
2021/04/26 20:09:15;;;;;;;1.37;0.53;;;;;;;;;;5010293;28;20191;-61
2021/04/26 20:11:45;;;;;;;0.93;0.33;;;;;;;;;;5010675;28;20186;-61
2021/04/26 20:14:12;;;;;;;0.20;0.17;;;;;;;;;;5013784;28;20297;-61
2021/04/26 20:16:39;;;;;;;0.33;0.10;;;;;;;;;;5012783;28;20267;-62
2021/04/26 20:19:07;;;;;;;2.57;0.40;;;;;;;;;;5010984;28;21082;-62
2021/04/26 20:21:34;;;;;;;1.80;0.23;;;;;;;;;;5005128;28;20262;-61
2021/04/26 20:24:00;;;;;;;5.10;1.87;;;;;;;;;;5013266;28;20192;-61
2021/04/26 20:26:29;;;;;;;0.00;0.00;;;;;;;;;;5019431;28;20979;-62
2021/04/26 20:28:58;;;;;;;0.00;0.00;;;;;;;;;;5015664;28;20289;-61
2021/04/26 20:31:24;;;;;;;0.30;0.30;;;;;;;;;;5019242;28;20191;-61
2021/04/26 20:33:51;;;;;;;0.00;0.00;;;;;;;;;;5020626;28;20200;-61
2021/04/26 20:36:18;;;;;;;0.60;0.47;;;;;;;;;;5017713;28;20204;-62
2021/04/26 20:38:45;;;;;;;0.00;0.00;;;;;;;;;;5015032;28;20176;-61
2021/04/26 20:41:13;;;;;;;0.43;0.10;;;;;;;;;;5018237;28;20185;-62
2021/04/26 20:43:39;;;;;;;1.10;0.33;;;;;;;;;;5017663;28;20198;-62
2021/04/26 20:46:06;;;;;;;0.40;0.00;;;;;;;;;;5016464;28;20870;-62
2021/04/26 20:48:33;;;;;;;0.40;0.33;;;;;;;;;;5020480;28;20283;-61
2021/04/26 20:51:00;;;;;;;0.00;0.00;;;;;;;;;;5016034;28;20223;-61
2021/04/26 20:53:27;;;;;;;0.40;0.13;;;;;;;;;;5018914;28;20237;-62
2021/04/26 20:55:53;;;;;;;0.73;0.20;;;;;;;;;;5016675;28;20211;-62
2021/04/26 20:58:20;;;;;;;0.10;0.10;;;;;;;;;;5011955;28;20188;-62
2021/04/26 21:00:49;;;;;;;0.93;0.20;;;;;;;;;;5011962;28;20182;-62
2021/04/26 21:03:15;;;;;;;0.47;0.37;;;;;;;;;;5016841;28;20178;-61
2021/04/26 21:05:43;;;;;;;0.00;0.00;;;;;;;;;;5017773;28;20184;-62
2021/04/26 21:08:09;;;;;;;0.00;0.00;;;;;;;;;;5018314;28;20195;-61